sensor_id;sensor_type;location;lat;lon;timestamp;P1;durP1;ratioP1;P2;durP2;ratioP2
14584;SDS011;7379;51.506;11.876;2022-11-21T00:00:37;21.73;;;14.27;;
14584;SDS011;7379;51.506;11.876;2022-11-21T00:03:05;22.97;;;14.93;;
14584;SDS011;7379;51.506;11.876;2022-11-21T00:05:32;25.13;;;15.40;;
14584;SDS011;7379;51.506;11.876;2022-11-21T00:07:59;22.50;;;14.33;;
14584;SDS011;7379;51.506;11.876;2022-11-21T00:10:26;22.27;;;14.70;;
14584;SDS011;7379;51.506;11.876;2022-11-21T00:12:53;22.13;;;14.80;;
14584;SDS011;7379;51.506;11.876;2022-11-21T00:15:20;21.63;;;14.40;;
14584;SDS011;7379;51.506;11.876;2022-11-21T00:17:47;23.13;;;14.73;;
14584;SDS011;7379;51.506;11.876;2022-11-21T00:20:16;22.37;;;14.90;;
14584;SDS011;7379;51.506;11.876;2022-11-21T00:22:43;22.80;;;15.27;;
14584;SDS011;7379;51.506;11.876;2022-11-21T00:25:11;23.03;;;14.60;;
14584;SDS011;7379;51.506;11.876;2022-11-21T00:27:38;22.40;;;13.67;;
14584;SDS011;7379;51.506;11.876;2022-11-21T00:30:06;21.50;;;14.03;;
14584;SDS011;7379;51.506;11.876;2022-11-21T00:32:35;23.30;;;15.57;;
14584;SDS011;7379;51.506;11.876;2022-11-21T00:35:01;21.63;;;14.03;;
14584;SDS011;7379;51.506;11.876;2022-11-21T00:37:30;24.17;;;14.70;;
14584;SDS011;7379;51.506;11.876;2022-11-21T00:39:58;21.57;;;14.53;;
14584;SDS011;7379;51.506;11.876;2022-11-21T00:42:25;22.07;;;14.33;;
14584;SDS011;7379;51.506;11.876;2022-11-21T00:44:51;23.50;;;14.97;;
14584;SDS011;7379;51.506;11.876;2022-11-21T00:47:18;20.90;;;14.37;;
14584;SDS011;7379;51.506;11.876;2022-11-21T00:49:45;20.07;;;13.77;;
14584;SDS011;7379;51.506;11.876;2022-11-21T00:52:12;21.47;;;13.63;;
14584;SDS011;7379;51.506;11.876;2022-11-21T00:54:40;22.77;;;15.27;;
14584;SDS011;7379;51.506;11.876;2022-11-21T00:57:07;22.63;;;14.60;;
14584;SDS011;7379;51.506;11.876;2022-11-21T00:59:34;22.17;;;15.10;;
14584;SDS011;7379;51.506;11.876;2022-11-21T01:02:01;24.10;;;15.07;;
14584;SDS011;7379;51.506;11.876;2022-11-21T01:04:29;21.07;;;13.87;;
14584;SDS011;7379;51.506;11.876;2022-11-21T01:06:56;22.10;;;14.47;;
14584;SDS011;7379;51.506;11.876;2022-11-21T01:09:23;19.87;;;13.90;;
14584;SDS011;7379;51.506;11.876;2022-11-21T01:11:52;21.63;;;13.80;;
14584;SDS011;7379;51.506;11.876;2022-11-21T01:14:18;21.83;;;14.70;;
14584;SDS011;7379;51.506;11.876;2022-11-21T01:16:45;21.37;;;13.87;;
14584;SDS011;7379;51.506;11.876;2022-11-21T01:19:12;22.17;;;14.37;;
14584;SDS011;7379;51.506;11.876;2022-11-21T01:21:39;21.47;;;14.53;;
14584;SDS011;7379;51.506;11.876;2022-11-21T01:24:05;21.17;;;14.47;;
14584;SDS011;7379;51.506;11.876;2022-11-21T01:26:35;22.70;;;14.40;;
14584;SDS011;7379;51.506;11.876;2022-11-21T01:29:04;22.70;;;15.13;;
14584;SDS011;7379;51.506;11.876;2022-11-21T01:31:32;22.30;;;14.30;;
14584;SDS011;7379;51.506;11.876;2022-11-21T01:34:00;24.10;;;15.40;;
14584;SDS011;7379;51.506;11.876;2022-11-21T01:36:27;22.17;;;13.97;;
14584;SDS011;7379;51.506;11.876;2022-11-21T01:38:56;21.50;;;14.37;;
14584;SDS011;7379;51.506;11.876;2022-11-21T01:41:25;24.53;;;15.13;;
14584;SDS011;7379;51.506;11.876;2022-11-21T01:43:55;21.87;;;13.77;;
14584;SDS011;7379;51.506;11.876;2022-11-21T01:46:24;22.70;;;15.13;;
14584;SDS011;7379;51.506;11.876;2022-11-21T01:48:52;22.37;;;15.03;;
14584;SDS011;7379;51.506;11.876;2022-11-21T01:51:23;22.37;;;14.63;;
14584;SDS011;7379;51.506;11.876;2022-11-21T01:53:55;23.43;;;14.93;;
14584;SDS011;7379;51.506;11.876;2022-11-21T01:56:24;22.13;;;14.93;;
14584;SDS011;7379;51.506;11.876;2022-11-21T01:58:54;22.97;;;14.13;;
14584;SDS011;7379;51.506;11.876;2022-11-21T02:01:25;20.33;;;14.10;;
14584;SDS011;7379;51.506;11.876;2022-11-21T02:03:53;21.60;;;14.67;;
14584;SDS011;7379;51.506;11.876;2022-11-21T02:06:22;22.07;;;14.13;;
14584;SDS011;7379;51.506;11.876;2022-11-21T02:08:50;21.53;;;14.50;;
14584;SDS011;7379;51.506;11.876;2022-11-21T02:11:19;22.63;;;14.27;;
14584;SDS011;7379;51.506;11.876;2022-11-21T02:13:51;22.30;;;14.17;;
14584;SDS011;7379;51.506;11.876;2022-11-21T02:16:18;21.20;;;14.40;;
14584;SDS011;7379;51.506;11.876;2022-11-21T02:18:46;21.77;;;14.50;;
14584;SDS011;7379;51.506;11.876;2022-11-21T02:21:15;21.17;;;14.13;;
14584;SDS011;7379;51.506;11.876;2022-11-21T02:23:49;20.93;;;13.87;;
14584;SDS011;7379;51.506;11.876;2022-11-21T02:26:24;20.67;;;13.70;;
14584;SDS011;7379;51.506;11.876;2022-11-21T02:28:51;20.50;;;13.60;;
14584;SDS011;7379;51.506;11.876;2022-11-21T02:31:19;20.07;;;13.90;;
14584;SDS011;7379;51.506;11.876;2022-11-21T02:33:45;19.87;;;13.47;;
14584;SDS011;7379;51.506;11.876;2022-11-21T02:36:33;20.87;;;13.97;;
14584;SDS011;7379;51.506;11.876;2022-11-21T02:39:05;20.30;;;13.17;;
14584;SDS011;7379;51.506;11.876;2022-11-21T02:41:36;20.13;;;13.90;;
14584;SDS011;7379;51.506;11.876;2022-11-21T02:44:11;21.80;;;14.50;;
14584;SDS011;7379;51.506;11.876;2022-11-21T02:46:46;19.73;;;13.20;;
14584;SDS011;7379;51.506;11.876;2022-11-21T02:49:15;20.70;;;14.37;;
14584;SDS011;7379;51.506;11.876;2022-11-21T02:51:47;21.90;;;14.70;;
14584;SDS011;7379;51.506;11.876;2022-11-21T02:54:14;22.07;;;14.33;;
14584;SDS011;7379;51.506;11.876;2022-11-21T02:56:42;20.83;;;14.43;;
14584;SDS011;7379;51.506;11.876;2022-11-21T02:59:08;22.20;;;15.03;;
14584;SDS011;7379;51.506;11.876;2022-11-21T03:01:35;19.87;;;13.47;;
14584;SDS011;7379;51.506;11.876;2022-11-21T03:04:02;20.90;;;13.40;;
14584;SDS011;7379;51.506;11.876;2022-11-21T03:06:29;19.30;;;13.27;;
14584;SDS011;7379;51.506;11.876;2022-11-21T03:08:56;19.17;;;13.37;;
14584;SDS011;7379;51.506;11.876;2022-11-21T03:11:22;20.43;;;13.23;;
14584;SDS011;7379;51.506;11.876;2022-11-21T03:13:51;20.40;;;13.97;;
14584;SDS011;7379;51.506;11.876;2022-11-21T03:16:17;22.37;;;14.07;;
14584;SDS011;7379;51.506;11.876;2022-11-21T03:18:44;23.40;;;14.67;;
14584;SDS011;7379;51.506;11.876;2022-11-21T03:21:11;21.23;;;14.43;;
14584;SDS011;7379;51.506;11.876;2022-11-21T03:23:38;20.30;;;13.40;;
14584;SDS011;7379;51.506;11.876;2022-11-21T03:26:04;19.80;;;13.20;;
14584;SDS011;7379;51.506;11.876;2022-11-21T03:28:31;21.60;;;14.27;;
14584;SDS011;7379;51.506;11.876;2022-11-21T03:30:59;20.43;;;13.20;;
14584;SDS011;7379;51.506;11.876;2022-11-21T03:33:26;21.70;;;13.93;;
14584;SDS011;7379;51.506;11.876;2022-11-21T03:35:53;21.07;;;13.90;;
14584;SDS011;7379;51.506;11.876;2022-11-21T03:38:20;19.50;;;13.40;;
14584;SDS011;7379;51.506;11.876;2022-11-21T03:40:46;20.60;;;13.97;;
14584;SDS011;7379;51.506;11.876;2022-11-21T03:43:13;18.87;;;12.87;;
14584;SDS011;7379;51.506;11.876;2022-11-21T03:45:40;20.20;;;13.37;;
14584;SDS011;7379;51.506;11.876;2022-11-21T03:48:08;22.00;;;13.60;;
14584;SDS011;7379;51.506;11.876;2022-11-21T03:50:35;19.43;;;12.93;;
14584;SDS011;7379;51.506;11.876;2022-11-21T03:53:01;19.13;;;12.87;;
14584;SDS011;7379;51.506;11.876;2022-11-21T03:55:28;19.67;;;13.40;;
14584;SDS011;7379;51.506;11.876;2022-11-21T03:57:55;20.83;;;14.13;;
14584;SDS011;7379;51.506;11.876;2022-11-21T04:00:22;19.00;;;13.27;;
14584;SDS011;7379;51.506;11.876;2022-11-21T04:02:48;21.83;;;14.07;;
14584;SDS011;7379;51.506;11.876;2022-11-21T04:05:17;19.70;;;12.97;;
14584;SDS011;7379;51.506;11.876;2022-11-21T04:07:44;19.97;;;13.43;;
14584;SDS011;7379;51.506;11.876;2022-11-21T04:10:11;21.67;;;13.50;;
14584;SDS011;7379;51.506;11.876;2022-11-21T04:12:38;22.60;;;13.93;;
14584;SDS011;7379;51.506;11.876;2022-11-21T04:15:05;21.33;;;14.40;;
14584;SDS011;7379;51.506;11.876;2022-11-21T04:17:32;20.30;;;13.30;;
14584;SDS011;7379;51.506;11.876;2022-11-21T04:19:59;20.47;;;14.07;;
14584;SDS011;7379;51.506;11.876;2022-11-21T04:22:27;22.17;;;13.93;;
14584;SDS011;7379;51.506;11.876;2022-11-21T04:24:54;24.00;;;15.30;;
14584;SDS011;7379;51.506;11.876;2022-11-21T04:27:20;23.43;;;14.40;;
14584;SDS011;7379;51.506;11.876;2022-11-21T04:29:47;23.87;;;14.87;;
14584;SDS011;7379;51.506;11.876;2022-11-21T04:32:14;23.13;;;13.90;;
14584;SDS011;7379;51.506;11.876;2022-11-21T04:34:41;23.07;;;14.20;;
14584;SDS011;7379;51.506;11.876;2022-11-21T04:37:07;24.37;;;15.70;;
14584;SDS011;7379;51.506;11.876;2022-11-21T04:39:36;23.03;;;14.37;;
14584;SDS011;7379;51.506;11.876;2022-11-21T04:42:02;25.23;;;15.90;;
14584;SDS011;7379;51.506;11.876;2022-11-21T04:44:29;24.07;;;15.63;;
14584;SDS011;7379;51.506;11.876;2022-11-21T04:46:56;25.43;;;15.90;;
14584;SDS011;7379;51.506;11.876;2022-11-21T04:49:24;25.07;;;16.50;;
14584;SDS011;7379;51.506;11.876;2022-11-21T04:51:50;26.53;;;16.73;;
14584;SDS011;7379;51.506;11.876;2022-11-21T04:54:17;26.80;;;17.03;;
14584;SDS011;7379;51.506;11.876;2022-11-21T04:56:45;24.87;;;15.53;;
14584;SDS011;7379;51.506;11.876;2022-11-21T04:59:12;27.63;;;17.30;;
14584;SDS011;7379;51.506;11.876;2022-11-21T05:01:39;26.90;;;16.63;;
14584;SDS011;7379;51.506;11.876;2022-11-21T05:04:06;23.87;;;15.27;;
14584;SDS011;7379;51.506;11.876;2022-11-21T05:06:32;27.80;;;17.63;;
14584;SDS011;7379;51.506;11.876;2022-11-21T05:08:59;26.87;;;17.17;;
14584;SDS011;7379;51.506;11.876;2022-11-21T05:11:26;26.57;;;16.47;;
14584;SDS011;7379;51.506;11.876;2022-11-21T05:14:12;25.17;;;15.93;;
14584;SDS011;7379;51.506;11.876;2022-11-21T05:16:39;29.57;;;17.97;;
14584;SDS011;7379;51.506;11.876;2022-11-21T05:19:07;29.47;;;17.80;;
14584;SDS011;7379;51.506;11.876;2022-11-21T05:21:34;26.83;;;16.90;;
14584;SDS011;7379;51.506;11.876;2022-11-21T05:24:01;27.17;;;16.63;;
14584;SDS011;7379;51.506;11.876;2022-11-21T05:26:27;28.83;;;18.63;;
14584;SDS011;7379;51.506;11.876;2022-11-21T05:28:54;27.63;;;17.20;;
14584;SDS011;7379;51.506;11.876;2022-11-21T05:31:22;28.77;;;17.30;;
14584;SDS011;7379;51.506;11.876;2022-11-21T05:33:49;28.07;;;17.50;;
14584;SDS011;7379;51.506;11.876;2022-11-21T05:36:16;28.50;;;18.00;;
14584;SDS011;7379;51.506;11.876;2022-11-21T05:38:43;28.20;;;17.20;;
14584;SDS011;7379;51.506;11.876;2022-11-21T05:41:09;26.47;;;16.10;;
14584;SDS011;7379;51.506;11.876;2022-11-21T05:43:36;29.40;;;17.30;;
14584;SDS011;7379;51.506;11.876;2022-11-21T05:46:11;26.87;;;17.10;;
14584;SDS011;7379;51.506;11.876;2022-11-21T05:48:42;27.67;;;16.87;;
14584;SDS011;7379;51.506;11.876;2022-11-21T05:51:10;28.53;;;17.17;;
14584;SDS011;7379;51.506;11.876;2022-11-21T05:53:37;27.53;;;17.20;;
14584;SDS011;7379;51.506;11.876;2022-11-21T05:56:05;27.30;;;17.03;;
14584;SDS011;7379;51.506;11.876;2022-11-21T05:58:33;28.57;;;17.37;;
14584;SDS011;7379;51.506;11.876;2022-11-21T06:01:01;27.83;;;16.23;;
14584;SDS011;7379;51.506;11.876;2022-11-21T06:03:29;27.03;;;16.43;;
14584;SDS011;7379;51.506;11.876;2022-11-21T06:05:58;27.17;;;16.30;;
14584;SDS011;7379;51.506;11.876;2022-11-21T06:08:30;25.17;;;16.33;;
14584;SDS011;7379;51.506;11.876;2022-11-21T06:10:59;27.50;;;16.63;;
14584;SDS011;7379;51.506;11.876;2022-11-21T06:13:26;25.57;;;15.87;;
14584;SDS011;7379;51.506;11.876;2022-11-21T06:15:57;28.17;;;16.17;;
14584;SDS011;7379;51.506;11.876;2022-11-21T06:18:25;25.93;;;15.13;;
14584;SDS011;7379;51.506;11.876;2022-11-21T06:20:52;27.97;;;15.63;;
14584;SDS011;7379;51.506;11.876;2022-11-21T06:23:20;26.80;;;15.83;;
14584;SDS011;7379;51.506;11.876;2022-11-21T06:25:47;28.63;;;15.50;;
14584;SDS011;7379;51.506;11.876;2022-11-21T06:28:22;27.33;;;16.60;;
14584;SDS011;7379;51.506;11.876;2022-11-21T06:30:48;28.10;;;15.43;;
14584;SDS011;7379;51.506;11.876;2022-11-21T06:33:16;26.73;;;16.13;;
14584;SDS011;7379;51.506;11.876;2022-11-21T06:35:43;26.77;;;15.83;;
14584;SDS011;7379;51.506;11.876;2022-11-21T06:38:10;24.93;;;15.63;;
14584;SDS011;7379;51.506;11.876;2022-11-21T06:40:39;25.03;;;15.80;;
14584;SDS011;7379;51.506;11.876;2022-11-21T06:43:05;25.60;;;15.60;;
14584;SDS011;7379;51.506;11.876;2022-11-21T06:45:32;26.40;;;16.43;;
14584;SDS011;7379;51.506;11.876;2022-11-21T06:48:00;24.17;;;14.97;;
14584;SDS011;7379;51.506;11.876;2022-11-21T06:50:27;24.97;;;14.87;;
14584;SDS011;7379;51.506;11.876;2022-11-21T06:52:55;26.43;;;14.43;;
14584;SDS011;7379;51.506;11.876;2022-11-21T06:55:22;23.40;;;15.07;;
14584;SDS011;7379;51.506;11.876;2022-11-21T06:57:51;24.40;;;15.00;;
14584;SDS011;7379;51.506;11.876;2022-11-21T07:00:18;23.67;;;14.83;;
14584;SDS011;7379;51.506;11.876;2022-11-21T07:02:46;23.93;;;14.87;;
14584;SDS011;7379;51.506;11.876;2022-11-21T07:05:12;23.50;;;14.40;;
14584;SDS011;7379;51.506;11.876;2022-11-21T07:07:39;22.97;;;13.80;;
14584;SDS011;7379;51.506;11.876;2022-11-21T07:10:06;21.07;;;14.37;;
14584;SDS011;7379;51.506;11.876;2022-11-21T07:12:34;24.33;;;14.73;;
14584;SDS011;7379;51.506;11.876;2022-11-21T07:15:19;22.07;;;14.17;;
14584;SDS011;7379;51.506;11.876;2022-11-21T07:17:46;23.10;;;14.23;;
14584;SDS011;7379;51.506;11.876;2022-11-21T07:20:13;23.90;;;14.57;;
14584;SDS011;7379;51.506;11.876;2022-11-21T07:22:40;23.20;;;14.23;;
14584;SDS011;7379;51.506;11.876;2022-11-21T07:25:07;22.07;;;14.20;;
14584;SDS011;7379;51.506;11.876;2022-11-21T07:27:34;21.67;;;14.03;;
14584;SDS011;7379;51.506;11.876;2022-11-21T07:30:01;22.57;;;14.37;;
14584;SDS011;7379;51.506;11.876;2022-11-21T07:32:29;23.70;;;14.87;;
14584;SDS011;7379;51.506;11.876;2022-11-21T07:34:56;21.83;;;14.63;;
14584;SDS011;7379;51.506;11.876;2022-11-21T07:37:23;22.70;;;14.13;;
14584;SDS011;7379;51.506;11.876;2022-11-21T07:39:49;24.43;;;14.63;;
14584;SDS011;7379;51.506;11.876;2022-11-21T07:42:16;21.77;;;13.87;;
14584;SDS011;7379;51.506;11.876;2022-11-21T07:44:43;22.53;;;14.33;;
14584;SDS011;7379;51.506;11.876;2022-11-21T07:47:10;21.63;;;13.57;;
14584;SDS011;7379;51.506;11.876;2022-11-21T07:49:38;22.53;;;13.67;;
14584;SDS011;7379;51.506;11.876;2022-11-21T07:52:05;22.53;;;14.13;;
14584;SDS011;7379;51.506;11.876;2022-11-21T07:54:32;20.10;;;13.97;;
14584;SDS011;7379;51.506;11.876;2022-11-21T07:56:58;20.87;;;13.07;;
14584;SDS011;7379;51.506;11.876;2022-11-21T07:59:25;21.67;;;13.40;;
14584;SDS011;7379;51.506;11.876;2022-11-21T08:01:52;20.87;;;13.53;;
14584;SDS011;7379;51.506;11.876;2022-11-21T08:04:19;19.13;;;12.83;;
14584;SDS011;7379;51.506;11.876;2022-11-21T08:06:47;21.00;;;13.13;;
14584;SDS011;7379;51.506;11.876;2022-11-21T08:09:14;20.27;;;13.20;;
14584;SDS011;7379;51.506;11.876;2022-11-21T08:11:41;21.70;;;13.63;;
14584;SDS011;7379;51.506;11.876;2022-11-21T08:14:08;21.03;;;13.43;;
14584;SDS011;7379;51.506;11.876;2022-11-21T08:16:34;20.67;;;13.20;;
14584;SDS011;7379;51.506;11.876;2022-11-21T08:19:01;19.50;;;13.17;;
14584;SDS011;7379;51.506;11.876;2022-11-21T08:21:29;20.10;;;12.77;;
14584;SDS011;7379;51.506;11.876;2022-11-21T08:23:57;18.87;;;12.63;;
14584;SDS011;7379;51.506;11.876;2022-11-21T08:26:24;19.87;;;13.17;;
14584;SDS011;7379;51.506;11.876;2022-11-21T08:28:51;20.60;;;12.80;;
14584;SDS011;7379;51.506;11.876;2022-11-21T08:31:18;18.83;;;12.80;;
14584;SDS011;7379;51.506;11.876;2022-11-21T08:33:44;20.03;;;12.73;;
14584;SDS011;7379;51.506;11.876;2022-11-21T08:36:11;19.27;;;13.17;;
14584;SDS011;7379;51.506;11.876;2022-11-21T08:38:38;18.37;;;12.40;;
14584;SDS011;7379;51.506;11.876;2022-11-21T08:41:06;19.67;;;12.60;;
14584;SDS011;7379;51.506;11.876;2022-11-21T08:43:50;18.90;;;12.33;;
14584;SDS011;7379;51.506;11.876;2022-11-21T08:46:17;19.23;;;12.53;;
14584;SDS011;7379;51.506;11.876;2022-11-21T08:48:43;18.57;;;13.10;;
14584;SDS011;7379;51.506;11.876;2022-11-21T08:51:10;19.17;;;12.93;;
14584;SDS011;7379;51.506;11.876;2022-11-21T08:53:37;17.57;;;12.27;;
14584;SDS011;7379;51.506;11.876;2022-11-21T08:56:04;18.77;;;12.40;;
14584;SDS011;7379;51.506;11.876;2022-11-21T08:58:32;18.87;;;12.37;;
14584;SDS011;7379;51.506;11.876;2022-11-21T09:00:59;18.43;;;12.10;;
14584;SDS011;7379;51.506;11.876;2022-11-21T09:03:26;18.77;;;12.63;;
14584;SDS011;7379;51.506;11.876;2022-11-21T09:05:54;17.80;;;12.10;;
14584;SDS011;7379;51.506;11.876;2022-11-21T09:08:21;17.80;;;12.07;;
14584;SDS011;7379;51.506;11.876;2022-11-21T09:10:48;19.20;;;11.97;;
14584;SDS011;7379;51.506;11.876;2022-11-21T09:13:15;16.67;;;12.00;;
14584;SDS011;7379;51.506;11.876;2022-11-21T09:15:43;18.27;;;13.03;;
14584;SDS011;7379;51.506;11.876;2022-11-21T09:18:28;16.10;;;11.70;;
14584;SDS011;7379;51.506;11.876;2022-11-21T09:20:54;15.53;;;11.90;;
14584;SDS011;7379;51.506;11.876;2022-11-21T09:23:21;16.93;;;10.87;;
14584;SDS011;7379;51.506;11.876;2022-11-21T09:25:48;17.03;;;11.47;;
14584;SDS011;7379;51.506;11.876;2022-11-21T09:28:15;15.27;;;10.80;;
14584;SDS011;7379;51.506;11.876;2022-11-21T09:30:41;15.83;;;11.47;;
14584;SDS011;7379;51.506;11.876;2022-11-21T09:33:10;14.87;;;11.17;;
14584;SDS011;7379;51.506;11.876;2022-11-21T09:35:39;17.07;;;11.57;;
14584;SDS011;7379;51.506;11.876;2022-11-21T09:38:05;15.17;;;10.90;;
14584;SDS011;7379;51.506;11.876;2022-11-21T09:40:33;14.93;;;10.60;;
14584;SDS011;7379;51.506;11.876;2022-11-21T09:46:02;16.37;;;10.97;;
14584;SDS011;7379;51.506;11.876;2022-11-21T09:48:35;13.43;;;10.33;;
14584;SDS011;7379;51.506;11.876;2022-11-21T09:51:09;16.27;;;10.93;;
14584;SDS011;7379;51.506;11.876;2022-11-21T09:53:38;14.47;;;10.33;;
14584;SDS011;7379;51.506;11.876;2022-11-21T09:56:14;15.53;;;10.70;;
14584;SDS011;7379;51.506;11.876;2022-11-21T09:58:44;15.07;;;9.80;;
14584;SDS011;7379;51.506;11.876;2022-11-21T10:01:15;15.60;;;10.17;;
14584;SDS011;7379;51.506;11.876;2022-11-21T10:03:43;13.73;;;9.53;;
14584;SDS011;7379;51.506;11.876;2022-11-21T10:06:13;13.83;;;10.17;;
14584;SDS011;7379;51.506;11.876;2022-11-21T10:08:46;13.47;;;9.90;;
14584;SDS011;7379;51.506;11.876;2022-11-21T10:11:22;13.20;;;9.77;;
14584;SDS011;7379;51.506;11.876;2022-11-21T10:14:03;15.13;;;10.43;;
14584;SDS011;7379;51.506;11.876;2022-11-21T10:16:40;13.80;;;9.57;;
14584;SDS011;7379;51.506;11.876;2022-11-21T10:19:20;13.83;;;9.50;;
14584;SDS011;7379;51.506;11.876;2022-11-21T10:22:17;13.10;;;9.70;;
14584;SDS011;7379;51.506;11.876;2022-11-21T10:24:54;12.57;;;9.07;;
14584;SDS011;7379;51.506;11.876;2022-11-21T10:27:27;11.87;;;9.23;;
14584;SDS011;7379;51.506;11.876;2022-11-21T10:29:59;13.20;;;8.90;;
14584;SDS011;7379;51.506;11.876;2022-11-21T10:32:30;12.37;;;9.17;;
14584;SDS011;7379;51.506;11.876;2022-11-21T10:35:02;10.27;;;8.00;;
14584;SDS011;7379;51.506;11.876;2022-11-21T10:37:39;10.10;;;7.57;;
14584;SDS011;7379;51.506;11.876;2022-11-21T10:40:23;10.73;;;8.47;;
14584;SDS011;7379;51.506;11.876;2022-11-21T10:42:57;9.60;;;7.27;;
14584;SDS011;7379;51.506;11.876;2022-11-21T10:45:48;9.77;;;7.40;;
14584;SDS011;7379;51.506;11.876;2022-11-21T10:48:16;9.03;;;7.03;;
14584;SDS011;7379;51.506;11.876;2022-11-21T10:50:47;8.97;;;7.03;;
14584;SDS011;7379;51.506;11.876;2022-11-21T10:53:25;8.83;;;6.97;;
14584;SDS011;7379;51.506;11.876;2022-11-21T10:56:15;9.77;;;6.63;;
14584;SDS011;7379;51.506;11.876;2022-11-21T10:58:43;9.63;;;7.33;;
14584;SDS011;7379;51.506;11.876;2022-11-21T11:01:21;8.47;;;6.57;;
14584;SDS011;7379;51.506;11.876;2022-11-21T11:04:11;8.80;;;6.40;;
14584;SDS011;7379;51.506;11.876;2022-11-21T11:06:43;8.33;;;6.60;;
14584;SDS011;7379;51.506;11.876;2022-11-21T11:09:20;8.47;;;6.37;;
14584;SDS011;7379;51.506;11.876;2022-11-21T11:11:53;11.60;;;7.00;;
14584;SDS011;7379;51.506;11.876;2022-11-21T11:15:17;11.77;;;7.27;;
14584;SDS011;7379;51.506;11.876;2022-11-21T11:17:48;10.33;;;7.30;;
14584;SDS011;7379;51.506;11.876;2022-11-21T11:20:30;9.97;;;7.77;;
14584;SDS011;7379;51.506;11.876;2022-11-21T11:22:59;11.50;;;8.30;;
14584;SDS011;7379;51.506;11.876;2022-11-21T11:25:41;11.17;;;8.53;;
14584;SDS011;7379;51.506;11.876;2022-11-21T11:28:12;11.43;;;8.90;;
14584;SDS011;7379;51.506;11.876;2022-11-21T11:30:39;10.73;;;8.00;;
14584;SDS011;7379;51.506;11.876;2022-11-21T11:35:56;10.23;;;7.97;;
14584;SDS011;7379;51.506;11.876;2022-11-21T11:38:26;10.63;;;8.13;;
14584;SDS011;7379;51.506;11.876;2022-11-21T11:40:57;13.43;;;8.43;;
14584;SDS011;7379;51.506;11.876;2022-11-21T11:43:28;10.70;;;7.80;;
14584;SDS011;7379;51.506;11.876;2022-11-21T11:46:27;12.53;;;9.20;;
14584;SDS011;7379;51.506;11.876;2022-11-21T11:49:21;12.60;;;9.17;;
14584;SDS011;7379;51.506;11.876;2022-11-21T11:51:58;15.17;;;10.33;;
14584;SDS011;7379;51.506;11.876;2022-11-21T11:54:30;15.13;;;9.70;;
14584;SDS011;7379;51.506;11.876;2022-11-21T11:57:05;14.23;;;9.93;;
14584;SDS011;7379;51.506;11.876;2022-11-21T11:59:35;13.63;;;9.60;;
14584;SDS011;7379;51.506;11.876;2022-11-21T12:02:07;11.27;;;8.57;;
14584;SDS011;7379;51.506;11.876;2022-11-21T12:04:43;11.30;;;9.00;;
14584;SDS011;7379;51.506;11.876;2022-11-21T12:07:16;13.63;;;9.80;;
14584;SDS011;7379;51.506;11.876;2022-11-21T12:09:47;13.40;;;9.40;;
14584;SDS011;7379;51.506;11.876;2022-11-21T12:12:22;13.57;;;9.47;;
14584;SDS011;7379;51.506;11.876;2022-11-21T12:14:59;14.53;;;9.47;;
14584;SDS011;7379;51.506;11.876;2022-11-21T12:17:53;13.03;;;9.27;;
14584;SDS011;7379;51.506;11.876;2022-11-21T12:20:31;11.83;;;8.83;;
14584;SDS011;7379;51.506;11.876;2022-11-21T12:23:02;12.93;;;9.30;;
14584;SDS011;7379;51.506;11.876;2022-11-21T12:25:35;10.93;;;8.53;;
14584;SDS011;7379;51.506;11.876;2022-11-21T12:28:13;12.27;;;9.03;;
14584;SDS011;7379;51.506;11.876;2022-11-21T12:30:56;12.13;;;8.83;;
14584;SDS011;7379;51.506;11.876;2022-11-21T12:33:34;12.10;;;9.10;;
14584;SDS011;7379;51.506;11.876;2022-11-21T12:36:15;11.73;;;8.60;;
14584;SDS011;7379;51.506;11.876;2022-11-21T12:38:53;11.50;;;8.40;;
14584;SDS011;7379;51.506;11.876;2022-11-21T12:41:31;12.13;;;8.73;;
14584;SDS011;7379;51.506;11.876;2022-11-21T12:44:25;10.23;;;8.03;;
14584;SDS011;7379;51.506;11.876;2022-11-21T12:47:10;12.23;;;8.97;;
14584;SDS011;7379;51.506;11.876;2022-11-21T12:49:48;10.53;;;8.00;;
14584;SDS011;7379;51.506;11.876;2022-11-21T12:52:38;10.43;;;8.30;;
14584;SDS011;7379;51.506;11.876;2022-11-21T12:55:30;10.63;;;8.17;;
14584;SDS011;7379;51.506;11.876;2022-11-21T12:58:06;11.30;;;8.20;;
14584;SDS011;7379;51.506;11.876;2022-11-21T13:00:45;11.87;;;8.60;;
14584;SDS011;7379;51.506;11.876;2022-11-21T13:03:39;11.40;;;8.30;;
14584;SDS011;7379;51.506;11.876;2022-11-21T13:06:12;10.67;;;8.10;;
14584;SDS011;7379;51.506;11.876;2022-11-21T13:08:41;10.60;;;8.07;;
14584;SDS011;7379;51.506;11.876;2022-11-21T13:11:15;11.27;;;8.07;;
14584;SDS011;7379;51.506;11.876;2022-11-21T13:14:11;11.27;;;8.07;;
14584;SDS011;7379;51.506;11.876;2022-11-21T13:16:45;11.13;;;8.53;;
14584;SDS011;7379;51.506;11.876;2022-11-21T13:19:20;12.33;;;8.47;;
14584;SDS011;7379;51.506;11.876;2022-11-21T13:21:50;10.57;;;8.07;;
14584;SDS011;7379;51.506;11.876;2022-11-21T13:27:25;10.57;;;7.87;;
14584;SDS011;7379;51.506;11.876;2022-11-21T13:32:43;11.57;;;8.30;;
14584;SDS011;7379;51.506;11.876;2022-11-21T13:38:11;11.77;;;8.53;;
14584;SDS011;7379;51.506;11.876;2022-11-21T13:40:38;13.33;;;9.10;;
14584;SDS011;7379;51.506;11.876;2022-11-21T13:43:27;10.47;;;8.07;;
14584;SDS011;7379;51.506;11.876;2022-11-21T13:45:53;13.43;;;9.30;;
14584;SDS011;7379;51.506;11.876;2022-11-21T13:48:41;13.10;;;9.30;;
14584;SDS011;7379;51.506;11.876;2022-11-21T13:51:22;14.40;;;9.57;;
14584;SDS011;7379;51.506;11.876;2022-11-21T13:57:29;14.90;;;9.90;;
14584;SDS011;7379;51.506;11.876;2022-11-21T14:00:15;15.47;;;10.27;;
14584;SDS011;7379;51.506;11.876;2022-11-21T14:05:58;19.00;;;11.43;;
14584;SDS011;7379;51.506;11.876;2022-11-21T14:08:35;20.17;;;12.30;;
14584;SDS011;7379;51.506;11.876;2022-11-21T14:11:17;20.57;;;12.27;;
14584;SDS011;7379;51.506;11.876;2022-11-21T14:13:46;19.90;;;12.20;;
14584;SDS011;7379;51.506;11.876;2022-11-21T14:16:22;20.63;;;12.47;;
14584;SDS011;7379;51.506;11.876;2022-11-21T14:18:55;22.17;;;13.43;;
14584;SDS011;7379;51.506;11.876;2022-11-21T14:21:24;22.63;;;13.30;;
14584;SDS011;7379;51.506;11.876;2022-11-21T14:23:53;22.57;;;13.70;;
14584;SDS011;7379;51.506;11.876;2022-11-21T14:26:22;21.63;;;13.27;;
14584;SDS011;7379;51.506;11.876;2022-11-21T14:28:49;22.30;;;14.33;;
14584;SDS011;7379;51.506;11.876;2022-11-21T14:31:16;23.90;;;13.87;;
14584;SDS011;7379;51.506;11.876;2022-11-21T14:33:45;23.63;;;14.30;;
14584;SDS011;7379;51.506;11.876;2022-11-21T14:36:13;24.83;;;14.37;;
14584;SDS011;7379;51.506;11.876;2022-11-21T14:38:42;25.00;;;15.00;;
14584;SDS011;7379;51.506;11.876;2022-11-21T14:41:10;27.53;;;14.97;;
14584;SDS011;7379;51.506;11.876;2022-11-21T14:43:49;25.63;;;14.43;;
14584;SDS011;7379;51.506;11.876;2022-11-21T14:46:26;25.60;;;14.17;;
14584;SDS011;7379;51.506;11.876;2022-11-21T14:49:03;24.10;;;15.07;;
14584;SDS011;7379;51.506;11.876;2022-11-21T14:51:42;29.10;;;16.57;;
14584;SDS011;7379;51.506;11.876;2022-11-21T14:54:10;26.53;;;15.30;;
14584;SDS011;7379;51.506;11.876;2022-11-21T14:56:39;25.00;;;15.27;;
14584;SDS011;7379;51.506;11.876;2022-11-21T14:59:10;28.00;;;16.23;;
14584;SDS011;7379;51.506;11.876;2022-11-21T15:01:53;26.87;;;15.70;;
14584;SDS011;7379;51.506;11.876;2022-11-21T15:04:26;26.70;;;15.43;;
14584;SDS011;7379;51.506;11.876;2022-11-21T15:06:54;26.30;;;15.37;;